createdAt,value
2022-11-07T00:00:37.347Z,5.86
2022-11-07T00:10:41.227Z,5.79
2022-11-07T00:20:44.919Z,5.69
2022-11-07T00:30:48.652Z,5.53
2022-11-07T00:40:56.617Z,5.34
2022-11-07T00:51:10.738Z,5.08
2022-11-07T01:01:24.113Z,5.03
2022-11-07T01:11:29.920Z,5.03
2022-11-07T01:21:33.775Z,4.97
2022-11-07T01:31:37.456Z,4.93
2022-11-07T01:41:41.171Z,5.01
2022-11-07T01:52:03.093Z,5.11
2022-11-07T02:02:08.466Z,5.24
2022-11-07T02:12:13.707Z,5.33
2022-11-07T02:22:26.494Z,5.40
2022-11-07T02:32:30.346Z,5.48
2022-11-07T02:42:45.175Z,5.60
2022-11-07T02:52:48.740Z,5.78
2022-11-07T03:02:52.602Z,5.92
2022-11-07T03:12:56.370Z,5.84
2022-11-07T03:23:00.056Z,5.82
2022-11-07T03:33:03.901Z,5.64
2022-11-07T03:43:07.577Z,5.56
2022-11-07T03:53:11.174Z,5.46
2022-11-07T04:03:15.215Z,5.22
2022-11-07T04:13:38.021Z,5.00
2022-11-07T04:23:41.584Z,4.78
2022-11-07T04:33:45.556Z,4.52
2022-11-07T04:43:49.726Z,4.22
2022-11-07T04:53:53.296Z,4.07
2022-11-07T05:03:56.915Z,4.01
2022-11-07T05:14:00.728Z,3.95
2022-11-07T05:24:05.437Z,3.85
2022-11-07T05:34:14.347Z,3.78
2022-11-07T05:44:18.577Z,3.78
2022-11-07T05:54:22.654Z,3.84
2022-11-07T06:04:26.516Z,4.08
2022-11-07T06:14:30.490Z,4.16
2022-11-07T06:24:34.492Z,4.40
2022-11-07T06:34:38.246Z,4.81
2022-11-07T06:44:41.999Z,5.26
2022-11-07T06:54:45.790Z,5.68
2022-11-07T07:04:49.660Z,6.13
2022-11-07T07:14:53.712Z,6.62
2022-11-07T07:24:57.381Z,7.04
2022-11-07T07:35:01.251Z,7.51
2022-11-07T07:45:06.130Z,7.85
2022-11-07T07:55:10.736Z,8.27
2022-11-07T08:05:16.702Z,8.71
2022-11-07T08:15:22.051Z,9.26
2022-11-07T08:25:26.228Z,9.97
2022-11-07T08:35:32.184Z,10.59
2022-11-07T08:45:36.326Z,11.01
2022-11-07T08:55:40.820Z,11.36
2022-11-07T09:05:44.777Z,11.85
2022-11-07T09:15:51.376Z,12.35
2022-11-07T09:25:59.270Z,12.83
2022-11-07T09:36:05.677Z,13.18
2022-11-07T09:46:51.210Z,13.47
2022-11-07T09:56:59.489Z,13.92
2022-11-07T10:07:11.252Z,14.32
2022-11-07T10:17:24.003Z,14.72
2022-11-07T10:27:28.604Z,14.99
2022-11-07T10:37:32.799Z,15.05
2022-11-07T10:47:36.711Z,15.02
2022-11-07T10:57:40.708Z,14.71
2022-11-07T11:07:44.395Z,14.44
2022-11-07T11:17:59.257Z,14.25
2022-11-07T11:28:10.032Z,14.21
2022-11-07T11:38:25.866Z,14.22
2022-11-07T11:48:48.577Z,14.18
2022-11-07T11:59:20.794Z,14.18
2022-11-07T12:09:38.272Z,14.23
2022-11-07T12:19:55.964Z,14.22
2022-11-07T12:30:24.967Z,14.21
2022-11-07T12:40:32.551Z,14.22
2022-11-07T12:50:56.778Z,14.13
2022-11-07T13:01:02.255Z,14.07
2022-11-07T13:11:18.044Z,13.99
2022-11-07T13:21:22.625Z,13.72
2022-11-07T13:31:39.707Z,13.50
2022-11-07T13:41:45.304Z,13.29
2022-11-07T13:51:52.064Z,13.08
2022-11-07T14:01:58.011Z,12.83
2022-11-07T14:12:02.338Z,12.67
2022-11-07T14:22:09.775Z,12.46
2022-11-07T14:32:17.521Z,12.21
2022-11-07T14:42:24.309Z,11.86
2022-11-07T14:52:48.715Z,11.58
2022-11-07T15:02:55.657Z,11.47
2022-11-07T15:13:03.103Z,11.40
2022-11-07T15:23:15.746Z,11.25
2022-11-07T15:33:20.719Z,10.97
2022-11-07T15:43:24.739Z,10.64
2022-11-07T15:53:30.141Z,10.17
2022-11-07T16:03:33.821Z,9.64
2022-11-07T16:13:39.300Z,9.17
2022-11-07T16:23:45.546Z,8.77
2022-11-07T16:33:49.517Z,8.32
2022-11-07T16:43:53.349Z,7.90
2022-11-07T16:53:57.257Z,7.52
2022-11-07T17:04:04.984Z,7.26
2022-11-07T17:14:09.720Z,6.79
2022-11-07T17:24:15.106Z,6.49
2022-11-07T17:34:22.058Z,6.10
2022-11-07T17:44:26.662Z,5.64
2022-11-07T17:54:31.635Z,5.43
2022-11-07T18:04:35.921Z,5.19
2022-11-07T18:14:43.025Z,4.83
2022-11-07T18:24:48.251Z,4.48
2022-11-07T18:34:53.786Z,4.40
2022-11-07T18:44:58.964Z,4.19
2022-11-07T18:55:03.661Z,3.90
2022-11-07T19:05:09.918Z,3.74
2022-11-07T19:15:15.422Z,3.49
2022-11-07T19:25:22.527Z,3.37
2022-11-07T19:35:28.467Z,3.09
2022-11-07T19:45:33.558Z,2.81
2022-11-07T19:55:40.684Z,2.69
2022-11-07T20:05:46.811Z,2.62
2022-11-07T20:15:52.826Z,2.46
2022-11-07T20:25:58.863Z,2.42
2022-11-07T20:36:08.210Z,2.29
2022-11-07T20:46:16.266Z,2.18
2022-11-07T20:56:24.100Z,2.07
2022-11-07T21:06:28.676Z,1.99
2022-11-07T21:16:41.183Z,1.98
2022-11-07T21:26:46.030Z,1.98
2022-11-07T21:36:49.879Z,1.86
2022-11-07T21:46:54.165Z,1.90
2022-11-07T21:56:58.546Z,2.04
2022-11-07T22:07:02.738Z,2.18
2022-11-07T22:17:06.695Z,2.28
2022-11-07T22:27:10.876Z,2.42
2022-11-07T22:37:14.758Z,2.55
2022-11-07T22:47:18.826Z,2.78
2022-11-07T22:57:22.696Z,2.88
2022-11-07T23:07:26.552Z,3.04
2022-11-07T23:17:31.759Z,3.18
2022-11-07T23:27:35.526Z,3.36
2022-11-07T23:37:40.093Z,3.42
2022-11-07T23:48:03.328Z,3.46
2022-11-07T23:58:26.938Z,3.43
